Time;durP1;ratioP1;P1;durP2;ratioP2;P2;SDS_P1;SDS_P2;PMS_P1;PMS_P2;Temp;Humidity;BMP_temperature;BMP_pressure;BME280_temperature;BME280_humidity;BME280_pressure;Samples;Min_cycle;Max_cycle;Signal;HPM_P1;HPM_P2
2022/07/02 00:01:22;;;;;;;7.38;6.70;;;;;;;;;;6161797;28;20226;-77
2022/07/02 00:04:47;;;;;;;7.45;6.78;;;;;;;;;;6174818;28;20241;-76
2022/07/02 00:08:08;;;;;;;8.65;6.63;;;;;;;;;;6177503;28;20475;-76
2022/07/02 00:11:29;;;;;;;8.27;7.18;;;;;;;;;;6171701;28;20806;-77
2022/07/02 00:14:52;;;;;;;7.32;6.70;;;;;;;;;;6176039;28;20225;-77
2022/07/02 00:18:12;;;;;;;7.80;7.00;;;;;;;;;;6150692;28;20589;-76
2022/07/02 00:21:39;;;;;;;7.25;6.47;;;;;;;;;;6172531;28;20225;-75
2022/07/02 00:25:00;;;;;;;6.70;6.00;;;;;;;;;;6174989;28;20744;-76
2022/07/02 00:28:23;;;;;;;9.48;7.15;;;;;;;;;;6165131;28;20222;-76
2022/07/02 00:31:44;;;;;;;8.90;6.95;;;;;;;;;;6169540;28;20229;-77
2022/07/02 00:35:05;;;;;;;7.60;6.65;;;;;;;;;;6173853;28;20509;-76
2022/07/02 00:38:27;;;;;;;9.10;7.15;;;;;;;;;;6172594;28;20226;-76
2022/07/02 00:41:48;;;;;;;11.00;7.47;;;;;;;;;;6172195;28;20230;-75
2022/07/02 00:45:08;;;;;;;7.43;6.68;;;;;;;;;;6174546;28;20237;-77
2022/07/02 00:48:29;;;;;;;7.45;6.75;;;;;;;;;;6174283;28;20241;-76
2022/07/02 00:51:50;;;;;;;9.38;7.32;;;;;;;;;;6168739;28;20231;-75
2022/07/02 00:55:13;;;;;;;9.20;6.30;;;;;;;;;;6173337;28;20257;-76
2022/07/02 00:58:34;;;;;;;9.18;6.75;;;;;;;;;;6171086;28;20229;-75
2022/07/02 01:01:54;;;;;;;8.70;7.15;;;;;;;;;;6174657;28;20226;-76
2022/07/02 01:05:15;;;;;;;10.43;7.65;;;;;;;;;;6171964;28;20243;-75
2022/07/02 01:12:16;;;;;;;7.10;6.50;;;;;;;;;;6172178;28;20229;-77
2022/07/02 01:15:37;;;;;;;6.37;5.87;;;;;;;;;;6170272;28;20225;-77
2022/07/02 01:18:58;;;;;;;8.65;6.65;;;;;;;;;;6171496;28;20636;-77
2022/07/02 01:22:21;;;;;;;7.50;6.70;;;;;;;;;;6169624;28;20245;-77
2022/07/02 01:25:41;;;;;;;6.93;6.13;;;;;;;;;;6168771;28;20249;-75
2022/07/02 01:29:02;;;;;;;11.30;6.67;;;;;;;;;;6168389;28;20828;-76
2022/07/02 01:32:22;;;;;;;8.50;7.67;;;;;;;;;;6173656;28;20337;-77
2022/07/02 01:35:43;;;;;;;7.50;6.30;;;;;;;;;;6170975;28;20350;-76
2022/07/02 01:39:05;;;;;;;7.53;6.37;;;;;;;;;;6170988;28;20238;-76
2022/07/02 01:42:26;;;;;;;6.95;6.38;;;;;;;;;;6163848;28;20230;-75
2022/07/02 01:45:46;;;;;;;7.03;6.43;;;;;;;;;;6163478;28;20268;-76
2022/07/02 01:49:07;;;;;;;6.20;5.60;;;;;;;;;;6173531;28;20238;-77
2022/07/02 01:52:28;;;;;;;6.97;6.37;;;;;;;;;;6173101;28;20667;-76
2022/07/02 01:55:50;;;;;;;7.57;6.87;;;;;;;;;;6164666;28;20227;-76
2022/07/02 01:59:10;;;;;;;7.93;6.03;;;;;;;;;;6171343;28;20602;-76
2022/07/02 02:02:31;;;;;;;5.90;5.25;;;;;;;;;;6174178;28;20614;-76
2022/07/02 02:05:52;;;;;;;7.60;5.40;;;;;;;;;;6171344;28;20230;-76
2022/07/02 02:09:13;;;;;;;6.43;5.82;;;;;;;;;;6172159;28;20237;-76
2022/07/02 02:12:35;;;;;;;6.93;5.00;;;;;;;;;;6164110;28;20233;-75
2022/07/02 02:15:55;;;;;;;5.30;4.67;;;;;;;;;;6174350;28;20234;-75
2022/07/02 02:19:16;;;;;;;6.37;4.00;;;;;;;;;;6176524;28;20944;-76
2022/07/02 02:22:36;;;;;;;4.45;4.05;;;;;;;;;;6171421;28;20233;-75
2022/07/02 02:25:57;;;;;;;4.35;3.95;;;;;;;;;;6171303;28;20619;-76
2022/07/02 02:29:19;;;;;;;5.05;3.80;;;;;;;;;;6186714;28;20304;-76
2022/07/02 02:32:39;;;;;;;5.25;3.45;;;;;;;;;;6175226;28;20229;-76
2022/07/02 02:36:00;;;;;;;4.63;3.20;;;;;;;;;;6177668;28;20642;-76
2022/07/02 02:39:21;;;;;;;11.73;4.67;;;;;;;;;;6177811;28;20612;-74
2022/07/02 02:42:41;;;;;;;4.00;3.60;;;;;;;;;;6175844;28;20238;-75
2022/07/02 02:46:04;;;;;;;4.60;3.77;;;;;;;;;;6169556;28;20320;-76
2022/07/02 02:49:24;;;;;;;6.77;4.60;;;;;;;;;;6177691;28;20230;-76
2022/07/02 02:52:45;;;;;;;4.95;3.97;;;;;;;;;;6178767;28;20230;-76
2022/07/02 02:56:06;;;;;;;6.95;4.45;;;;;;;;;;6176225;28;20230;-77
2022/07/02 02:59:27;;;;;;;4.65;3.95;;;;;;;;;;6172455;28;20245;-76
2022/07/02 03:02:49;;;;;;;6.20;4.23;;;;;;;;;;6174377;28;20317;-77
2022/07/02 03:06:09;;;;;;;5.43;4.10;;;;;;;;;;6178179;28;20466;-75
2022/07/02 03:09:30;;;;;;;5.53;4.93;;;;;;;;;;6175760;28;20238;-75
2022/07/02 03:12:51;;;;;;;5.90;4.30;;;;;;;;;;6172057;28;20304;-77
2022/07/02 03:16:11;;;;;;;5.27;4.67;;;;;;;;;;6170585;28;20254;-76
2022/07/02 03:19:34;;;;;;;6.50;4.97;;;;;;;;;;6176335;28;20226;-75
2022/07/02 03:22:54;;;;;;;7.60;5.77;;;;;;;;;;6171589;28;20558;-75
2022/07/02 03:26:14;;;;;;;9.27;8.47;;;;;;;;;;6175652;28;20230;-76
2022/07/02 03:29:36;;;;;;;6.47;5.20;;;;;;;;;;6173782;28;20732;-74
2022/07/02 03:32:57;;;;;;;6.50;5.90;;;;;;;;;;6177302;28;20258;-75
2022/07/02 03:36:18;;;;;;;14.60;11.63;;;;;;;;;;6162881;28;20238;-77
2022/07/02 03:39:39;;;;;;;10.13;8.87;;;;;;;;;;6180199;28;20233;-75
2022/07/02 03:43:00;;;;;;;10.70;8.47;;;;;;;;;;6178101;28;20804;-75
2022/07/02 03:46:20;;;;;;;11.93;9.63;;;;;;;;;;6174514;28;20783;-76
2022/07/02 03:49:41;;;;;;;11.83;7.70;;;;;;;;;;6177380;28;20230;-76
2022/07/02 03:53:03;;;;;;;9.63;8.47;;;;;;;;;;6177522;28;20538;-76
2022/07/02 03:56:23;;;;;;;8.63;7.63;;;;;;;;;;6163561;28;20234;-74
2022/07/02 03:59:44;;;;;;;10.90;8.17;;;;;;;;;;6172133;28;20263;-77
2022/07/02 04:03:05;;;;;;;8.73;7.93;;;;;;;;;;6173885;28;20230;-77
2022/07/02 04:06:25;;;;;;;6.47;5.87;;;;;;;;;;6170795;28;20615;-77
2022/07/02 04:09:47;;;;;;;6.50;5.90;;;;;;;;;;6173049;28;20234;-76
2022/07/02 04:13:10;;;;;;;6.43;5.83;;;;;;;;;;6176752;28;20245;-76
2022/07/02 04:16:30;;;;;;;5.73;5.20;;;;;;;;;;6176291;28;22272;-76
2022/07/02 04:19:51;;;;;;;7.23;6.50;;;;;;;;;;6171087;28;20250;-76
2022/07/02 04:23:11;;;;;;;6.70;6.10;;;;;;;;;;6171193;28;20246;-76
2022/07/02 04:26:33;;;;;;;6.87;5.77;;;;;;;;;;6174022;28;20321;-76
2022/07/02 04:29:54;;;;;;;5.47;4.80;;;;;;;;;;6171351;28;20234;-76
2022/07/02 04:33:15;;;;;;;5.07;4.67;;;;;;;;;;6167475;28;20258;-76
2022/07/02 04:36:36;;;;;;;6.33;5.50;;;;;;;;;;6172116;28;20656;-75
2022/07/02 04:39:57;;;;;;;6.23;4.87;;;;;;;;;;6173405;28;20233;-75
2022/07/02 04:43:19;;;;;;;6.73;4.77;;;;;;;;;;6171357;28;20234;-77
2022/07/02 04:46:39;;;;;;;5.33;4.83;;;;;;;;;;6169748;28;20229;-76
2022/07/02 04:50:03;;;;;;;7.17;5.03;;;;;;;;;;6173750;28;20233;-77
2022/07/02 04:53:23;;;;;;;5.57;4.10;;;;;;;;;;6178042;28;20234;-76
2022/07/02 04:56:44;;;;;;;6.20;4.33;;;;;;;;;;6173924;28;20252;-77
2022/07/02 05:00:07;;;;;;;4.77;4.13;;;;;;;;;;6169959;28;20217;-76
2022/07/02 05:03:28;;;;;;;7.70;4.87;;;;;;;;;;6170243;28;20534;-76
2022/07/02 05:06:48;;;;;;;8.57;4.27;;;;;;;;;;6171561;28;20221;-76
2022/07/02 05:10:09;;;;;;;4.60;3.73;;;;;;;;;;6169615;28;20261;-75
2022/07/02 05:13:30;;;;;;;6.50;4.07;;;;;;;;;;6169117;28;20542;-74
2022/07/02 05:16:52;;;;;;;6.03;3.73;;;;;;;;;;6166593;28;20230;-74
2022/07/02 05:20:13;;;;;;;6.63;4.60;;;;;;;;;;6170717;28;20861;-76
2022/07/02 05:23:33;;;;;;;4.43;3.60;;;;;;;;;;6170070;28;20230;-76
2022/07/02 05:26:54;;;;;;;6.90;4.00;;;;;;;;;;6170670;28;20226;-76
2022/07/02 05:30:14;;;;;;;4.10;3.80;;;;;;;;;;6165982;28;20230;-76
2022/07/02 05:33:36;;;;;;;5.28;3.97;;;;;;;;;;6174602;28;20603;-76
2022/07/02 05:36:57;;;;;;;3.70;3.40;;;;;;;;;;6174868;28;20226;-77
2022/07/02 05:40:18;;;;;;;5.80;4.83;;;;;;;;;;6174439;28;20234;-76
2022/07/02 05:43:38;;;;;;;3.40;2.83;;;;;;;;;;6180107;28;20329;-76
2022/07/02 05:46:59;;;;;;;4.10;2.83;;;;;;;;;;6172801;28;20230;-78
2022/07/02 05:50:21;;;;;;;3.67;3.05;;;;;;;;;;6177675;28;20241;-76
2022/07/02 05:53:42;;;;;;;8.03;4.47;;;;;;;;;;6176254;28;20246;-76
2022/07/02 05:57:02;;;;;;;4.55;3.38;;;;;;;;;;6175654;28;20238;-76
2022/07/02 06:00:23;;;;;;;3.33;2.90;;;;;;;;;;6173714;28;20618;-75
2022/07/02 06:03:43;;;;;;;4.25;3.15;;;;;;;;;;6173777;28;20238;-75
2022/07/02 06:10:43;;;;;;;6.93;3.08;;;;;;;;;;6175378;28;20234;-76
2022/07/02 06:14:04;;;;;;;6.88;3.13;;;;;;;;;;6177259;28;20230;-75
2022/07/02 06:17:25;;;;;;;5.13;3.08;;;;;;;;;;6176327;28;20237;-75
2022/07/02 06:20:45;;;;;;;4.55;2.67;;;;;;;;;;6176020;28;20651;-77
2022/07/02 06:24:09;;;;;;;5.43;2.58;;;;;;;;;;6168672;28;21993;-75
2022/07/02 06:27:33;;;;;;;7.85;2.45;;;;;;;;;;6176384;28;20233;-75
2022/07/02 06:30:54;;;;;;;5.30;2.83;;;;;;;;;;6172612;28;20237;-74
2022/07/02 06:34:14;;;;;;;4.10;2.10;;;;;;;;;;6171082;28;20233;-73
2022/07/02 06:37:35;;;;;;;4.63;2.13;;;;;;;;;;6177197;28;20230;-73
2022/07/02 06:40:56;;;;;;;3.30;1.70;;;;;;;;;;6168299;28;20230;-72
2022/07/02 06:44:17;;;;;;;3.22;1.83;;;;;;;;;;6171052;28;20233;-77
2022/07/02 06:47:39;;;;;;;3.42;1.85;;;;;;;;;;6176020;28;21164;-75
2022/07/02 06:51:00;;;;;;;7.50;2.40;;;;;;;;;;6174404;28;20321;-76
2022/07/02 06:54:21;;;;;;;2.30;1.42;;;;;;;;;;6171816;28;20233;-76
2022/07/02 06:57:43;;;;;;;4.05;1.50;;;;;;;;;;6172999;28;20242;-76
2022/07/02 07:01:04;;;;;;;3.35;1.95;;;;;;;;;;6166744;28;20234;-76
2022/07/02 07:04:26;;;;;;;4.78;1.55;;;;;;;;;;6168495;28;20517;-75
2022/07/02 07:07:47;;;;;;;4.38;1.17;;;;;;;;;;6174086;28;20257;-76
2022/07/02 07:11:08;;;;;;;3.95;2.45;;;;;;;;;;6167951;28;20819;-75
2022/07/02 07:14:30;;;;;;;7.28;1.92;;;;;;;;;;6179974;28;20234;-74
2022/07/02 07:17:50;;;;;;;5.45;1.70;;;;;;;;;;6183580;28;20262;-74
2022/07/02 07:21:11;;;;;;;3.05;1.95;;;;;;;;;;6180946;28;20233;-74
2022/07/02 07:24:31;;;;;;;5.38;1.88;;;;;;;;;;6179524;28;20333;-75
2022/07/02 07:27:52;;;;;;;5.13;1.80;;;;;;;;;;6178008;28;20229;-75
2022/07/02 07:31:16;;;;;;;3.90;1.80;;;;;;;;;;6173721;28;20250;-75
2022/07/02 07:34:36;;;;;;;1.33;1.23;;;;;;;;;;6182844;28;20349;-76
2022/07/02 07:38:00;;;;;;;3.58;1.73;;;;;;;;;;6177841;28;20229;-76
2022/07/02 07:41:21;;;;;;;3.20;2.10;;;;;;;;;;6178199;28;20234;-76
2022/07/02 07:44:42;;;;;;;3.50;1.30;;;;;;;;;;6180908;28;20304;-75
2022/07/02 07:48:04;;;;;;;3.47;1.70;;;;;;;;;;6182772;28;20233;-74
2022/07/02 07:51:24;;;;;;;2.35;1.42;;;;;;;;;;6180570;28;20292;-75
2022/07/02 07:54:45;;;;;;;1.42;1.30;;;;;;;;;;6184099;28;20313;-75
2022/07/02 07:58:05;;;;;;;4.70;1.50;;;;;;;;;;6180677;28;22271;-75
2022/07/02 08:01:27;;;;;;;5.88;1.75;;;;;;;;;;6180202;28;20238;-75
2022/07/02 08:04:48;;;;;;;4.70;1.88;;;;;;;;;;6181354;28;20225;-74
2022/07/02 08:08:09;;;;;;;1.90;1.50;;;;;;;;;;6178055;28;20230;-75
2022/07/02 08:11:30;;;;;;;4.93;1.80;;;;;;;;;;6172371;28;20702;-75
2022/07/02 08:14:50;;;;;;;3.05;1.70;;;;;;;;;;6166469;28;20241;-75
2022/07/02 08:18:10;;;;;;;3.83;1.75;;;;;;;;;;6163807;28;20329;-76
2022/07/02 08:21:33;;;;;;;4.20;1.27;;;;;;;;;;6173944;28;20639;-76
2022/07/02 08:24:53;;;;;;;1.38;1.15;;;;;;;;;;6178079;28;20242;-73
2022/07/02 08:28:14;;;;;;;3.58;1.70;;;;;;;;;;6179418;28;20337;-75
2022/07/02 08:31:35;;;;;;;1.60;1.27;;;;;;;;;;6169019;28;20261;-76
2022/07/02 08:34:56;;;;;;;2.17;1.10;;;;;;;;;;6167052;28;20221;-74
2022/07/02 08:38:18;;;;;;;3.60;1.55;;;;;;;;;;6171897;28;20241;-75
2022/07/02 08:41:41;;;;;;;4.47;2.00;;;;;;;;;;6163814;28;20699;-75
2022/07/02 08:45:03;;;;;;;4.30;1.58;;;;;;;;;;6166462;28;20253;-75
2022/07/02 08:48:24;;;;;;;1.77;1.25;;;;;;;;;;6175026;28;20300;-74
2022/07/02 08:51:46;;;;;;;4.80;1.58;;;;;;;;;;6177557;28;20261;-74
2022/07/02 08:55:09;;;;;;;2.50;1.30;;;;;;;;;;6162430;28;20316;-75
2022/07/02 08:58:30;;;;;;;2.63;1.42;;;;;;;;;;6176942;28;20337;-75
2022/07/02 09:01:52;;;;;;;2.30;0.93;;;;;;;;;;6174992;28;20233;-76
2022/07/02 09:05:13;;;;;;;2.75;1.10;;;;;;;;;;6178364;28;20233;-75
2022/07/02 09:08:34;;;;;;;3.08;1.45;;;;;;;;;;6183344;28;20496;-74
2022/07/02 09:11:56;;;;;;;2.63;1.20;;;;;;;;;;6181021;28;20408;-75
2022/07/02 09:15:17;;;;;;;2.63;0.85;;;;;;;;;;6179163;28;20233;-79
2022/07/02 09:18:37;;;;;;;2.00;1.08;;;;;;;;;;6172702;28;20237;-70
2022/07/02 09:21:58;;;;;;;3.08;1.55;;;;;;;;;;6175943;28;20233;-71
2022/07/02 09:25:20;;;;;;;4.15;1.15;;;;;;;;;;6173614;28;20233;-73
2022/07/02 09:28:50;;;;;;;4.30;1.15;;;;;;;;;;6176600;28;20233;-70
2022/07/02 09:32:11;;;;;;;1.98;1.17;;;;;;;;;;6170166;28;20611;-72
2022/07/02 09:35:32;;;;;;;4.30;1.70;;;;;;;;;;6180580;28;20221;-67
2022/07/02 09:38:53;;;;;;;1.05;0.73;;;;;;;;;;6172658;28;20221;-70
2022/07/02 09:42:24;;;;;;;5.38;1.60;;;;;;;;;;6175825;28;20250;-73
2022/07/02 09:45:46;;;;;;;1.38;0.85;;;;;;;;;;6175517;28;20287;-70
2022/07/02 09:49:07;;;;;;;3.15;1.60;;;;;;;;;;6176460;28;20233;-69
2022/07/02 09:52:28;;;;;;;3.30;1.02;;;;;;;;;;6181045;28;20225;-68
2022/07/02 09:55:49;;;;;;;2.50;1.00;;;;;;;;;;6179103;28;20233;-72
2022/07/02 09:59:13;;;;;;;2.38;0.98;;;;;;;;;;6171871;28;20246;-70
2022/07/02 10:02:36;;;;;;;3.42;0.90;;;;;;;;;;6177178;28;20329;-70
2022/07/02 10:05:57;;;;;;;1.10;0.68;;;;;;;;;;6172497;28;20232;-73
2022/07/02 10:09:18;;;;;;;2.25;0.98;;;;;;;;;;6174143;28;20235;-73
2022/07/02 10:12:40;;;;;;;0.93;0.82;;;;;;;;;;6175763;28;20300;-72
2022/07/02 10:16:02;;;;;;;1.75;1.10;;;;;;;;;;6182371;28;20234;-73
2022/07/02 10:19:24;;;;;;;1.13;1.02;;;;;;;;;;6172083;28;20360;-73
2022/07/02 10:22:44;;;;;;;2.35;1.42;;;;;;;;;;6181484;28;20391;-74
2022/07/02 10:26:05;;;;;;;4.68;1.33;;;;;;;;;;6180654;28;20229;-73
2022/07/02 10:29:26;;;;;;;1.52;0.90;;;;;;;;;;6169717;28;20233;-72
2022/07/02 10:32:53;;;;;;;2.63;1.25;;;;;;;;;;6174904;28;20234;-72
2022/07/02 10:36:17;;;;;;;3.13;1.05;;;;;;;;;;6182000;28;20605;-71
2022/07/02 10:39:40;;;;;;;1.30;1.20;;;;;;;;;;6177857;28;20321;-72
2022/07/02 10:43:01;;;;;;;4.35;1.05;;;;;;;;;;6177896;28;20226;-72
2022/07/02 10:46:23;;;;;;;2.08;1.08;;;;;;;;;;6178828;28;20250;-73
2022/07/02 10:49:43;;;;;;;1.73;0.73;;;;;;;;;;6169854;28;20230;-73
2022/07/02 10:53:08;;;;;;;4.88;1.10;;;;;;;;;;6172218;28;20233;-71
2022/07/02 10:56:29;;;;;;;2.28;1.02;;;;;;;;;;6178505;28;20241;-72
2022/07/02 10:59:50;;;;;;;2.78;0.88;;;;;;;;;;6173181;28;20226;-73
2022/07/02 11:03:11;;;;;;;2.88;1.10;;;;;;;;;;6159752;28;20787;-72
2022/07/02 11:06:33;;;;;;;2.63;0.90;;;;;;;;;;6163253;28;20230;-69
2022/07/02 11:10:05;;;;;;;3.38;0.90;;;;;;;;;;6173612;28;20675;-70
2022/07/02 11:13:31;;;;;;;1.75;1.10;;;;;;;;;;6169433;28;20233;-70
2022/07/02 11:16:53;;;;;;;1.63;1.00;;;;;;;;;;6162120;28;20241;-70
2022/07/02 11:20:14;;;;;;;2.35;1.02;;;;;;;;;;6179749;28;20321;-69
2022/07/02 11:23:34;;;;;;;2.05;1.20;;;;;;;;;;6187014;28;20230;-70
2022/07/02 11:26:56;;;;;;;1.08;0.90;;;;;;;;;;6182181;28;20238;-69
2022/07/02 11:30:23;;;;;;;1.38;0.80;;;;;;;;;;6178474;28;20234;-70
2022/07/02 11:33:48;;;;;;;3.03;0.90;;;;;;;;;;6179130;28;20233;-70
2022/07/02 11:37:09;;;;;;;2.67;1.55;;;;;;;;;;6182182;28;20290;-70
2022/07/02 11:40:29;;;;;;;2.88;0.80;;;;;;;;;;6168404;28;20245;-71
2022/07/02 11:43:52;;;;;;;1.10;0.90;;;;;;;;;;6180703;28;20241;-70
2022/07/02 11:47:13;;;;;;;4.82;1.05;;;;;;;;;;6183511;28;20222;-69
2022/07/02 11:50:35;;;;;;;4.07;1.73;;;;;;;;;;6177061;28;20234;-70
2022/07/02 11:53:57;;;;;;;1.60;0.93;;;;;;;;;;6185371;28;20591;-70
2022/07/02 11:57:18;;;;;;;1.60;1.02;;;;;;;;;;6178238;28;20238;-70
2022/07/02 12:00:40;;;;;;;2.47;0.88;;;;;;;;;;6174818;28;20234;-69
2022/07/02 12:04:02;;;;;;;1.52;1.02;;;;;;;;;;6180440;28;20238;-70
2022/07/02 12:07:22;;;;;;;2.45;1.52;;;;;;;;;;6174542;28;20239;-72
2022/07/02 12:10:43;;;;;;;3.00;0.90;;;;;;;;;;6180424;28;20226;-70
2022/07/02 12:14:05;;;;;;;1.45;0.98;;;;;;;;;;6177540;28;20234;-70
2022/07/02 12:17:28;;;;;;;1.45;0.85;;;;;;;;;;6182444;28;20241;-69
2022/07/02 12:20:49;;;;;;;4.03;1.30;;;;;;;;;;6173624;28;20257;-70
2022/07/02 12:24:19;;;;;;;3.35;1.20;;;;;;;;;;6183311;28;20230;-70
2022/07/02 12:27:40;;;;;;;1.58;1.10;;;;;;;;;;6179989;28;20623;-70
2022/07/02 12:30:59;;;;;;;1.30;1.05;;;;;;;;;;6175384;28;20226;-70
2022/07/02 12:34:23;;;;;;;2.30;1.13;;;;;;;;;;6175774;28;20233;-71
2022/07/02 12:37:43;;;;;;;0.63;0.57;;;;;;;;;;6178367;28;20615;-70
2022/07/02 12:41:04;;;;;;;2.92;1.70;;;;;;;;;;6173154;28;20230;-69
2022/07/02 12:44:25;;;;;;;1.58;0.77;;;;;;;;;;6178224;28;20253;-68
2022/07/02 12:47:45;;;;;;;18.42;2.00;;;;;;;;;;6176560;28;20237;-70
2022/07/02 12:51:10;;;;;;;1.98;0.98;;;;;;;;;;6178208;28;20615;-69
2022/07/02 12:54:35;;;;;;;1.95;0.95;;;;;;;;;;6181129;28;20226;-70
2022/07/02 12:57:56;;;;;;;1.90;1.10;;;;;;;;;;6184236;28;20651;-70
2022/07/02 13:01:17;;;;;;;5.03;1.90;;;;;;;;;;6173088;28;20597;-69
2022/07/02 13:04:37;;;;;;;2.08;0.80;;;;;;;;;;6171984;28;20748;-71
2022/07/02 13:07:59;;;;;;;1.45;0.80;;;;;;;;;;6175439;28;20619;-71
2022/07/02 13:11:22;;;;;;;1.98;1.08;;;;;;;;;;6174567;28;20264;-69
2022/07/02 13:14:43;;;;;;;1.85;0.80;;;;;;;;;;6173307;28;20324;-70
2022/07/02 13:18:04;;;;;;;1.80;0.90;;;;;;;;;;6167408;28;20237;-68
2022/07/02 13:21:25;;;;;;;1.85;0.80;;;;;;;;;;6169551;28;20222;-69
2022/07/02 13:24:46;;;;;;;2.13;0.98;;;;;;;;;;6176403;28;20230;-70
2022/07/02 13:28:08;;;;;;;1.45;1.00;;;;;;;;;;6170045;28;20234;-69
2022/07/02 13:31:28;;;;;;;2.40;1.65;;;;;;;;;;6165861;28;20654;-69
2022/07/02 13:34:49;;;;;;;1.65;0.90;;;;;;;;;;6171616;28;20762;-70
2022/07/02 13:38:09;;;;;;;3.05;1.38;;;;;;;;;;6170297;28;20619;-68
2022/07/02 13:41:31;;;;;;;0.90;0.90;;;;;;;;;;6159331;28;20229;-71
2022/07/02 13:44:52;;;;;;;1.45;0.90;;;;;;;;;;6168999;28;20238;-70
2022/07/02 13:48:12;;;;;;;0.88;0.70;;;;;;;;;;6163771;28;20580;-69
2022/07/02 13:51:33;;;;;;;4.13;0.98;;;;;;;;;;6173671;28;20236;-70
2022/07/02 13:54:53;;;;;;;2.38;0.70;;;;;;;;;;6180738;28;20596;-69
2022/07/02 13:58:15;;;;;;;2.95;1.35;;;;;;;;;;6177162;28;20234;-70
2022/07/02 14:01:36;;;;;;;1.38;1.20;;;;;;;;;;6177748;28;20313;-70
2022/07/02 14:04:56;;;;;;;3.70;1.13;;;;;;;;;;6175579;28;20238;-69
2022/07/02 14:08:18;;;;;;;1.45;1.20;;;;;;;;;;6175746;28;20234;-71
2022/07/02 14:11:40;;;;;;;1.50;0.88;;;;;;;;;;6185401;28;20317;-69
2022/07/02 14:15:01;;;;;;;2.78;1.42;;;;;;;;;;6174038;28;20964;-70
2022/07/02 14:18:22;;;;;;;2.45;1.15;;;;;;;;;;6177756;28;20230;-70
2022/07/02 14:21:43;;;;;;;2.60;1.40;;;;;;;;;;6177427;28;20239;-70
2022/07/02 14:25:04;;;;;;;1.90;0.82;;;;;;;;;;6184766;28;20245;-70
2022/07/02 14:28:24;;;;;;;1.45;0.95;;;;;;;;;;6183062;28;20623;-70
2022/07/02 14:31:48;;;;;;;1.38;1.10;;;;;;;;;;6181462;28;20230;-69
2022/07/02 14:35:09;;;;;;;1.83;1.20;;;;;;;;;;6180570;28;20230;-71
2022/07/02 14:38:29;;;;;;;2.03;1.08;;;;;;;;;;6180073;28;20245;-69
2022/07/02 14:41:50;;;;;;;4.93;1.40;;;;;;;;;;6183315;28;20249;-68
2022/07/02 14:45:11;;;;;;;3.10;1.65;;;;;;;;;;6179970;28;20229;-69
2022/07/02 14:48:33;;;;;;;1.20;0.80;;;;;;;;;;6173664;28;20225;-71
2022/07/02 14:51:54;;;;;;;1.40;0.80;;;;;;;;;;6181469;28;20267;-69
2022/07/02 14:55:15;;;;;;;1.80;0.80;;;;;;;;;;6183783;28;20229;-69
2022/07/02 14:58:35;;;;;;;1.77;0.88;;;;;;;;;;6178889;28;20266;-69
2022/07/02 15:01:56;;;;;;;2.47;0.98;;;;;;;;;;6179572;28;20604;-70
2022/07/02 15:05:18;;;;;;;0.93;0.77;;;;;;;;;;6179667;28;20237;-70
2022/07/02 15:08:40;;;;;;;1.88;0.90;;;;;;;;;;6180086;28;20256;-70
2022/07/02 15:12:03;;;;;;;1.17;0.88;;;;;;;;;;6178936;28;20501;-70
2022/07/02 15:19:06;;;;;;;2.60;0.73;;;;;;;;;;6176844;28;21612;-71
2022/07/02 15:22:32;;;;;;;2.60;1.15;;;;;;;;;;6180115;28;20233;-72
2022/07/02 15:25:54;;;;;;;1.60;1.15;;;;;;;;;;6180623;28;20234;-70
2022/07/02 15:29:14;;;;;;;2.65;1.10;;;;;;;;;;6182773;28;20225;-70
2022/07/02 15:32:35;;;;;;;1.63;1.33;;;;;;;;;;6181472;28;20300;-70
2022/07/02 15:35:56;;;;;;;2.28;2.05;;;;;;;;;;6175474;28;20583;-70
2022/07/02 15:39:18;;;;;;;1.73;0.95;;;;;;;;;;6173693;28;20249;-71
2022/07/02 15:42:39;;;;;;;2.17;1.05;;;;;;;;;;6181245;28;20332;-70
2022/07/02 15:45:59;;;;;;;2.85;0.90;;;;;;;;;;6174548;28;20313;-71
2022/07/02 15:49:20;;;;;;;2.78;1.38;;;;;;;;;;6175349;28;20229;-69
2022/07/02 15:52:44;;;;;;;1.23;0.93;;;;;;;;;;6178606;28;20226;-70
2022/07/02 15:56:06;;;;;;;1.05;1.05;;;;;;;;;;6181453;28;20233;-70
2022/07/02 15:59:28;;;;;;;1.30;0.80;;;;;;;;;;6180582;28;20263;-70
2022/07/02 16:02:49;;;;;;;1.38;1.15;;;;;;;;;;6171873;28;20234;-70
2022/07/02 16:06:11;;;;;;;2.45;1.10;;;;;;;;;;6180897;28;20238;-69
2022/07/02 16:09:31;;;;;;;2.45;1.30;;;;;;;;;;6148582;28;20965;-69
2022/07/02 16:12:54;;;;;;;2.25;1.15;;;;;;;;;;6177438;28;20222;-70
2022/07/02 16:16:15;;;;;;;3.35;1.15;;;;;;;;;;6175293;28;20229;-69
2022/07/02 16:19:38;;;;;;;2.35;1.00;;;;;;;;;;6176422;28;20233;-70
2022/07/02 16:22:59;;;;;;;2.03;1.10;;;;;;;;;;6172634;28;20237;-71
2022/07/02 16:26:19;;;;;;;1.35;1.08;;;;;;;;;;6173482;28;20245;-69
2022/07/02 16:29:41;;;;;;;1.00;0.80;;;;;;;;;;6174304;28;21404;-70
2022/07/02 16:33:03;;;;;;;2.05;1.33;;;;;;;;;;6176986;28;20340;-69
2022/07/02 16:36:26;;;;;;;1.10;0.98;;;;;;;;;;6177964;28;20746;-70
2022/07/02 16:39:56;;;;;;;3.83;1.48;;;;;;;;;;6172626;28;20317;-69
2022/07/02 16:43:17;;;;;;;3.20;0.98;;;;;;;;;;6175021;28;20226;-69
2022/07/02 16:46:44;;;;;;;1.25;1.15;;;;;;;;;;6174549;28;20222;-68
2022/07/02 16:50:05;;;;;;;1.63;1.10;;;;;;;;;;6161416;28;20226;-70
2022/07/02 16:53:27;;;;;;;1.58;1.13;;;;;;;;;;6162235;28;20253;-70
2022/07/02 16:56:48;;;;;;;1.75;1.00;;;;;;;;;;6178728;28;20677;-69
2022/07/02 17:00:09;;;;;;;1.23;0.65;;;;;;;;;;6173785;28;20230;-73
2022/07/02 17:03:32;;;;;;;2.95;1.08;;;;;;;;;;6169290;28;20227;-74
2022/07/02 17:06:54;;;;;;;0.93;0.70;;;;;;;;;;6173885;28;20242;-75
2022/07/02 17:13:54;;;;;;;1.92;1.02;;;;;;;;;;6179937;28;20229;-75
2022/07/02 17:17:14;;;;;;;141.95;131.27;;;;;;;;;;6170062;28;21375;-73
2022/07/02 17:20:36;;;;;;;108.47;101.55;;;;;;;;;;6174641;28;20226;-75
2022/07/02 17:23:57;;;;;;;229.15;215.82;;;;;;;;;;6169175;28;20257;-72
2022/07/02 17:27:18;;;;;;;28.17;26.33;;;;;;;;;;6176760;28;20246;-75
2022/07/02 17:30:38;;;;;;;1116.03;999.90;;;;;;;;;;6172059;28;20257;-71
2022/07/02 17:33:59;;;;;;;340.73;303.27;;;;;;;;;;6172585;28;20237;-73
2022/07/02 17:37:21;;;;;;;7.90;7.22;;;;;;;;;;6172200;28;20234;-73
2022/07/02 17:40:44;;;;;;;1.92;1.25;;;;;;;;;;6176185;28;20329;-74
2022/07/02 17:44:05;;;;;;;0.98;0.88;;;;;;;;;;6171532;28;20265;-73
2022/07/02 17:47:25;;;;;;;3.08;1.00;;;;;;;;;;6179253;28;21229;-74
2022/07/02 17:50:47;;;;;;;3.15;1.50;;;;;;;;;;6162755;28;20537;-73
2022/07/02 17:54:08;;;;;;;2.08;1.10;;;;;;;;;;6171022;28;20233;-74
2022/07/02 17:57:29;;;;;;;2.13;1.00;;;;;;;;;;6175361;28;20332;-73
2022/07/02 18:00:51;;;;;;;2.05;1.50;;;;;;;;;;6171012;28;20332;-74
2022/07/02 18:04:11;;;;;;;2.30;1.38;;;;;;;;;;6179349;28;20225;-73
2022/07/02 18:07:32;;;;;;;2.85;2.00;;;;;;;;;;6182232;28;20218;-72
2022/07/02 18:10:54;;;;;;;3.63;2.13;;;;;;;;;;6173143;28;20603;-73
2022/07/02 18:14:15;;;;;;;2.30;1.40;;;;;;;;;;6170835;28;20250;-73
2022/07/02 18:17:36;;;;;;;3.47;1.90;;;;;;;;;;6171764;28;20555;-74
2022/07/02 18:20:56;;;;;;;2.50;1.58;;;;;;;;;;6169161;28;20806;-73
2022/07/02 18:24:16;;;;;;;2.28;2.08;;;;;;;;;;6174611;28;20249;-71
2022/07/02 18:27:38;;;;;;;2.83;2.53;;;;;;;;;;6182376;28;20233;-70
2022/07/02 18:30:59;;;;;;;5.32;4.93;;;;;;;;;;6164338;28;20218;-70
2022/07/02 18:34:19;;;;;;;3.20;2.90;;;;;;;;;;6174097;28;20233;-70
2022/07/02 18:37:40;;;;;;;4.20;2.60;;;;;;;;;;6177218;28;20262;-70
2022/07/02 18:41:01;;;;;;;3.92;3.53;;;;;;;;;;6176678;28;20312;-70
2022/07/02 18:44:23;;;;;;;4.78;4.32;;;;;;;;;;6181987;28;20226;-70
2022/07/02 18:47:43;;;;;;;5.15;4.65;;;;;;;;;;6179914;28;20218;-70
2022/07/02 18:51:05;;;;;;;6.47;5.88;;;;;;;;;;6177328;28;20300;-68
2022/07/02 18:54:26;;;;;;;5.63;5.13;;;;;;;;;;6168881;28;20645;-68
2022/07/02 18:57:46;;;;;;;6.97;4.80;;;;;;;;;;6181372;28;20611;-70
2022/07/02 19:01:09;;;;;;;7.68;6.40;;;;;;;;;;6172482;28;20737;-70
2022/07/02 19:04:29;;;;;;;6.13;5.10;;;;;;;;;;6168704;28;20627;-70
2022/07/02 19:07:50;;;;;;;7.25;5.55;;;;;;;;;;6173354;28;20233;-71
2022/07/02 19:11:10;;;;;;;4.82;4.43;;;;;;;;;;6180649;28;20261;-70
2022/07/02 19:14:32;;;;;;;7.13;5.55;;;;;;;;;;6176959;28;20324;-70
2022/07/02 19:17:54;;;;;;;4.50;4.10;;;;;;;;;;6183890;28;20250;-71
2022/07/02 19:21:14;;;;;;;5.13;4.65;;;;;;;;;;6183467;28;20226;-72
2022/07/02 19:24:35;;;;;;;8.15;5.82;;;;;;;;;;6185936;28;20225;-71
2022/07/02 19:31:34;;;;;;;8.45;7.75;;;;;;;;;;6176665;28;20611;-69
2022/07/02 19:34:57;;;;;;;5.63;5.13;;;;;;;;;;6175557;28;20265;-71
2022/07/02 19:38:17;;;;;;;5.28;4.78;;;;;;;;;;6177086;28;20620;-72
2022/07/02 19:41:38;;;;;;;7.38;5.22;;;;;;;;;;6174718;28;20320;-70
2022/07/02 19:44:59;;;;;;;5.88;5.20;;;;;;;;;;6179963;28;20226;-69
2022/07/02 19:48:20;;;;;;;9.10;5.88;;;;;;;;;;6176650;28;20608;-70
2022/07/02 19:51:42;;;;;;;6.07;4.28;;;;;;;;;;6175860;28;20237;-73
2022/07/02 19:55:04;;;;;;;4.45;3.63;;;;;;;;;;6178717;28;20267;-71
2022/07/02 19:58:24;;;;;;;5.18;4.07;;;;;;;;;;6175256;28;20325;-70
2022/07/02 20:01:45;;;;;;;5.32;4.82;;;;;;;;;;6174959;28;20230;-71
2022/07/02 20:05:06;;;;;;;5.63;5.13;;;;;;;;;;6177680;28;20261;-70
2022/07/02 20:08:28;;;;;;;5.18;4.30;;;;;;;;;;6172736;28;20229;-69
2022/07/02 20:11:49;;;;;;;4.63;4.22;;;;;;;;;;6169210;28;20313;-70
2022/07/02 20:15:09;;;;;;;5.25;4.75;;;;;;;;;;6172469;28;20230;-71
2022/07/02 20:18:30;;;;;;;4.13;3.53;;;;;;;;;;6175418;28;20233;-70
2022/07/02 20:21:51;;;;;;;4.78;4.25;;;;;;;;;;6177203;28;20230;-69